Hauptseite
METAR-TAF:

METAR-TAF

Flughäfen :

Fort Meade, Maryland, Vereinigte Staaten

Breite: 39-05N, Länge: 076-46W, Höhe: 46 m

Beobachtung

Neuester Wetterbericht von vor 25 Minuten, um 02:33 UTC
Wind 4 kt aus West/Nordwest
Temperatur 2°C
Luftfeuchtigkeit 64%
Luftdruck 1024 hPa
Sichtweite: 16.1 km
Aufgelockert bewölkt in der Höhe von 11000 ft

METAR: KFME 160233Z AUTO 29004KT 10SM SCT110 02/M04 A3024 RMK AO1

Zeit: 21:58 (02:58 UTC)


TAF: fehlend

Wetterbeobachtungen und Prognosen von mehr als 4000 Flughäfen (METAR und TAF Bericht).

Die verfügbaren Stationen werden durch gelbe und rote Markierungen auf der Karte dargestellt.

Führen Sie die Maus auf sie, um den Namen der Station zu sehen.

Darauf klicken, um die Beobachtung von Wetterbeobachtungen und Prognosen zu sehen.

Um die Karte zu ändern : klicken Sie auf den grünen Tasten mit einem schwarzen Kreuz Zum Vergrößern, auf den grünen Button mit einem Gedankenstrich zu verkleinern, oder auf die grünen Pfeile für benachbarte Karten.


METAR-TAF: